Time;durP1;ratioP1;P1;durP2;ratioP2;P2;SDS_P1;SDS_P2;PMS_P1;PMS_P2;Temp;Humidity;BMP_temperature;BMP_pressure;BME280_temperature;BME280_humidity;BME280_pressure;Samples;Min_cycle;Max_cycle;Signal;HPM_P1;HPM_P2
2022/10/05 00:00:26;;;;;;;11.63;5.50;;;17.10;70.90;;;;;;5133066;27;20070;-63
2022/10/05 00:02:53;;;;;;;9.50;5.70;;;17.10;70.90;;;;;;5116820;28;20114;-62
2022/10/05 00:05:31;;;;;;;9.52;4.80;;;17.10;71.00;;;;;;5116983;27;20115;-62
2022/10/05 00:08:10;;;;;;;9.15;5.50;;;17.20;71.10;;;;;;5116273;27;20112;-62
2022/10/05 00:10:37;;;;;;;8.82;4.90;;;17.20;71.10;;;;;;5125953;27;20027;-62
2022/10/05 00:13:10;;;;;;;8.90;5.13;;;17.20;71.10;;;;;;5120805;27;20414;-62
2022/10/05 00:15:35;;;;;;;10.32;5.38;;;17.20;71.10;;;;;;5132810;27;20032;-62
2022/10/05 00:18:08;;;;;;;10.15;5.40;;;17.10;71.00;;;;;;5116889;28;20070;-62
2022/10/05 00:20:34;;;;;;;10.77;5.70;;;17.10;71.10;;;;;;5115599;28;20415;-62
2022/10/05 00:23:03;;;;;;;9.88;5.32;;;17.10;71.10;;;;;;5127826;27;20023;-62
2022/10/05 00:25:28;;;;;;;10.85;5.70;;;17.10;71.20;;;;;;5108736;28;20027;-62
2022/10/05 00:27:59;;;;;;;11.13;6.03;;;17.10;71.20;;;;;;5132083;27;20028;-62
2022/10/05 00:30:31;;;;;;;9.73;4.90;;;17.10;71.90;;;;;;5117440;27;20027;-62
2022/10/05 00:32:57;;;;;;;12.05;5.43;;;17.10;71.30;;;;;;5133276;27;20031;-62
2022/10/05 00:35:23;;;;;;;10.32;5.25;;;17.10;71.40;;;;;;5115124;28;20023;-62
2022/10/05 00:37:53;;;;;;;9.50;5.32;;;17.10;71.50;;;;;;5116025;28;20024;-62
2022/10/05 00:40:39;;;;;;;9.35;5.93;;;17.10;71.50;;;;;;5115973;28;20433;-62
2022/10/05 00:43:33;;;;;;;9.60;5.85;;;17.10;71.50;;;;;;5132148;27;20063;-62
2022/10/05 00:46:14;;;;;;;10.30;5.53;;;17.10;71.50;;;;;;5114469;28;20058;-62
2022/10/05 00:48:55;;;;;;;10.27;5.30;;;17.00;71.60;;;;;;5116421;28;20438;-62
2022/10/05 00:51:28;;;;;;;8.45;5.18;;;17.00;71.70;;;;;;5131617;27;20100;-62
2022/10/05 00:54:24;;;;;;;9.35;5.15;;;17.00;71.80;;;;;;5115943;27;20332;-62
2022/10/05 00:56:53;;;;;;;10.55;5.28;;;17.00;71.90;;;;;;5090349;28;20129;-62
2022/10/05 01:00:01;;;;;;;9.65;5.15;;;17.00;72.60;;;;;;5116549;28;20024;-62
2022/10/05 01:02:42;;;;;;;10.88;5.05;;;17.00;72.00;;;;;;5111449;27;20487;-62
2022/10/05 01:05:11;;;;;;;;;;;17.00;72.00;;;;;;5124104;27;20470;-62
2022/10/05 01:07:43;;;;;;;8.57;5.15;;;17.00;71.90;;;;;;5116397;28;20228;-62
2022/10/05 01:10:45;;;;;;;11.05;5.53;;;17.00;72.00;;;;;;5115393;28;20077;-62
2022/10/05 01:13:32;;;;;;;9.05;4.90;;;17.00;72.10;;;;;;5072982;28;20098;-62
2022/10/05 01:16:25;;;;;;;9.35;5.28;;;17.00;72.20;;;;;;5056047;28;20036;-62
2022/10/05 01:19:10;;;;;;;12.70;5.85;;;17.00;72.30;;;;;;5073995;28;20112;-62
2022/10/05 01:21:49;;;;;;;9.52;5.50;;;17.00;72.40;;;;;;5040694;28;20476;-62
2022/10/05 01:24:39;;;;;;;11.32;5.60;;;16.90;72.40;;;;;;5070542;28;20042;-62
2022/10/05 01:27:15;;;;;;;12.20;5.68;;;16.90;72.40;;;;;;5073695;28;20445;-62
2022/10/05 01:29:58;;;;;;;9.60;5.68;;;17.00;72.50;;;;;;5056992;28;20024;-62
2022/10/05 01:32:39;;;;;;;10.20;6.18;;;17.00;72.50;;;;;;5056041;28;20024;-62
2022/10/05 01:35:37;;;;;;;12.05;6.00;;;17.00;72.60;;;;;;5072613;28;20051;-62
2022/10/05 01:38:12;;;;;;;9.68;5.72;;;16.90;72.60;;;;;;5053307;28;20032;-62
2022/10/05 01:40:55;;;;;;;11.18;5.82;;;16.90;72.60;;;;;;5072432;28;20406;-62
2022/10/05 01:43:49;;;;;;;9.52;6.07;;;16.90;72.70;;;;;;5073425;28;20055;-62
2022/10/05 01:46:35;;;;;;;10.75;6.22;;;16.90;72.70;;;;;;5068957;28;20099;-62
2022/10/05 01:49:30;;;;;;;11.98;6.40;;;17.00;72.80;;;;;;5114524;28;20023;-62
2022/10/05 01:52:21;;;;;;;11.25;5.90;;;17.00;72.90;;;;;;5113415;28;20345;-62
2022/10/05 01:54:53;;;;;;;9.80;5.68;;;17.00;73.00;;;;;;5113964;27;20080;-62
2022/10/05 01:57:18;;;;;;;;;;;16.90;73.00;;;;;;5130879;27;20031;-62
2022/10/05 01:59:53;;;;;;;11.40;6.10;;;16.90;72.90;;;;;;5113610;28;20340;-62
2022/10/05 02:02:22;;;;;;;9.23;5.88;;;16.90;73.00;;;;;;5117644;27;20023;-62
2022/10/05 02:04:54;;;;;;;10.70;6.50;;;16.90;73.00;;;;;;5114517;27;20032;-62
2022/10/05 02:07:51;;;;;;;13.77;6.70;;;16.90;73.00;;;;;;5115238;28;20047;-62
2022/10/05 02:10:23;;;;;;;11.10;6.15;;;16.90;73.10;;;;;;5113732;28;20067;-62
2022/10/05 02:12:53;;;;;;;10.88;6.47;;;16.90;73.20;;;;;;5131428;27;20036;-62
2022/10/05 02:15:25;;;;;;;11.00;6.75;;;16.80;73.30;;;;;;5112917;28;20024;-62
2022/10/05 02:17:57;;;;;;;11.07;6.68;;;16.80;73.40;;;;;;5125226;27;20043;-62
2022/10/05 02:20:27;;;;;;;10.05;6.13;;;16.80;73.50;;;;;;5120597;27;20127;-62
2022/10/05 02:22:59;;;;;;;10.27;7.00;;;16.80;73.50;;;;;;5117168;28;20098;-62
2022/10/05 02:25:32;;;;;;;10.70;6.65;;;16.80;73.60;;;;;;5131017;27;20107;-62
2022/10/05 02:28:21;;;;;;;10.43;6.25;;;16.80;73.60;;;;;;5100499;28;20092;-62
2022/10/05 02:31:07;;;;;;;9.98;6.10;;;16.70;73.60;;;;;;5121040;28;20398;-62
2022/10/05 02:33:34;;;;;;;10.18;6.35;;;16.80;73.70;;;;;;5102390;28;20038;-62
2022/10/05 02:36:12;;;;;;;11.00;7.25;;;16.70;73.80;;;;;;5128704;27;20058;-62
2022/10/05 02:38:47;;;;;;;10.73;6.72;;;16.70;73.90;;;;;;5129747;27;20333;-62
2022/10/05 02:41:41;;;;;;;12.32;7.80;;;16.70;73.90;;;;;;5130790;28;20059;-62
2022/10/05 02:44:30;;;;;;;11.55;6.78;;;16.70;74.00;;;;;;5105879;28;20077;-62
2022/10/05 02:47:17;;;;;;;10.70;6.80;;;16.60;74.00;;;;;;5126831;28;20019;-62
2022/10/05 02:49:58;;;;;;;14.02;7.97;;;16.60;74.10;;;;;;5131060;28;20058;-62
2022/10/05 02:52:37;;;;;;;;;;;16.60;74.10;;;;;;5119726;28;20023;-62
2022/10/05 02:55:09;;;;;;;9.57;6.22;;;16.60;74.10;;;;;;5112983;28;20284;-62
2022/10/05 02:57:54;;;;;;;12.63;7.40;;;16.50;74.20;;;;;;5130981;28;20110;-62
2022/10/05 03:00:23;;;;;;;11.48;6.97;;;16.50;74.30;;;;;;5100587;28;20517;-62
2022/10/05 03:03:19;;;;;;;11.50;7.55;;;16.50;74.30;;;;;;5131458;27;20020;-62
2022/10/05 03:05:55;;;;;;;12.73;7.47;;;16.50;74.40;;;;;;5126415;28;20042;-62
2022/10/05 03:08:30;;;;;;;12.35;7.60;;;16.50;75.10;;;;;;5127422;28;20034;-62
2022/10/05 03:11:06;;;;;;;10.00;6.78;;;16.50;74.50;;;;;;5130590;28;20535;-62
2022/10/05 03:13:57;;;;;;;12.20;7.75;;;16.50;74.50;;;;;;5114427;28;20381;-62
2022/10/05 03:16:47;;;;;;;13.27;7.95;;;16.50;74.50;;;;;;5105168;28;20031;-62
2022/10/05 03:19:23;;;;;;;12.20;7.72;;;16.50;74.50;;;;;;5091402;28;20417;-62
2022/10/05 03:22:21;;;;;;;12.68;7.53;;;16.50;74.60;;;;;;5129492;28;20069;-62
2022/10/05 03:25:14;;;;;;;11.15;7.15;;;16.50;74.60;;;;;;5097523;28;20371;-62
2022/10/05 03:27:49;;;;;;;10.48;7.18;;;16.50;74.60;;;;;;5113523;28;20127;-62
2022/10/05 03:30:20;;;;;;;10.82;7.43;;;16.50;74.60;;;;;;5119747;27;20035;-62
2022/10/05 03:33:00;;;;;;;14.02;7.45;;;16.50;74.60;;;;;;5131082;27;20455;-62
2022/10/05 03:35:53;;;;;;;11.52;7.57;;;16.50;74.70;;;;;;5133381;27;20084;-62
2022/10/05 03:38:36;;;;;;;11.23;7.25;;;16.50;74.70;;;;;;5133495;27;20372;-62
2022/10/05 03:41:22;;;;;;;12.45;7.60;;;16.50;74.70;;;;;;5132811;27;20478;-62
2022/10/05 03:44:12;;;;;;;11.23;7.47;;;16.50;74.70;;;;;;5118088;28;20031;-62
2022/10/05 03:46:57;;;;;;;10.90;6.88;;;16.50;74.80;;;;;;5114931;28;20035;-62
2022/10/05 03:49:41;;;;;;;11.68;7.95;;;16.50;74.70;;;;;;5133052;27;20077;-62
2022/10/05 03:52:16;;;;;;;12.82;7.20;;;16.50;74.80;;;;;;5115973;27;20027;-62
2022/10/05 03:54:50;;;;;;;10.70;7.70;;;16.50;74.80;;;;;;5117462;27;20080;-62
2022/10/05 03:57:26;;;;;;;13.35;8.10;;;16.50;74.80;;;;;;5116815;28;20092;-62
2022/10/05 04:00:16;;;;;;;11.45;7.30;;;16.50;74.80;;;;;;5115576;27;20027;-62
2022/10/05 04:02:56;;;;;;;10.57;7.13;;;16.60;74.80;;;;;;5116628;28;20478;-62
2022/10/05 04:05:27;;;;;;;11.95;7.38;;;16.50;74.80;;;;;;5133243;27;20023;-62
2022/10/05 04:08:19;;;;;;;10.45;6.55;;;16.50;74.80;;;;;;5120768;27;20077;-62
2022/10/05 04:10:55;;;;;;;10.55;6.57;;;16.50;74.80;;;;;;5138048;27;20460;-65
2022/10/05 04:13:27;;;;;;;11.52;6.97;;;16.50;74.80;;;;;;5123519;27;20034;-65
2022/10/05 04:16:08;;;;;;;11.25;6.65;;;16.50;74.90;;;;;;5131899;27;20027;-65
2022/10/05 04:18:55;;;;;;;12.57;6.95;;;16.60;74.90;;;;;;5116118;28;20039;-65
2022/10/05 04:21:29;;;;;;;12.48;6.60;;;16.60;74.90;;;;;;5132664;27;20024;-66
2022/10/05 04:23:59;;;;;;;10.90;6.78;;;16.60;74.80;;;;;;5110944;28;20466;-64
2022/10/05 04:26:48;;;;;;;11.98;6.63;;;16.60;74.80;;;;;;5115402;28;20118;-65
2022/10/05 04:29:49;;;;;;;10.57;6.72;;;16.60;74.80;;;;;;5130150;27;20022;-65
2022/10/05 04:32:22;;;;;;;11.18;6.70;;;16.60;74.80;;;;;;5117969;27;20124;-65
2022/10/05 04:34:48;;;;;;;13.35;7.20;;;16.60;74.80;;;;;;5115137;27;20025;-65
2022/10/05 04:37:32;;;;;;;11.00;6.75;;;16.60;74.80;;;;;;5115242;27;20032;-65
2022/10/05 04:40:23;;;;;;;11.52;6.53;;;16.60;74.70;;;;;;5109720;28;20356;-65
2022/10/05 04:43:17;;;;;;;10.95;6.13;;;16.60;74.70;;;;;;5126845;27;20047;-65
2022/10/05 04:46:05;;;;;;;11.18;6.40;;;16.60;74.80;;;;;;5131320;27;20402;-65
2022/10/05 04:48:49;;;;;;;10.70;6.50;;;16.60;74.70;;;;;;5115746;28;20458;-64
2022/10/05 04:51:39;;;;;;;9.85;6.40;;;16.60;74.60;;;;;;5131934;27;20024;-64
2022/10/05 04:54:27;;;;;;;12.15;6.78;;;16.60;74.60;;;;;;5098894;28;20032;-64
2022/10/05 04:56:58;;;;;;;10.88;6.50;;;16.60;74.60;;;;;;5111748;28;20057;-65
2022/10/05 04:59:44;;;;;;;10.85;6.82;;;16.50;74.60;;;;;;5132439;27;20024;-65
2022/10/05 05:02:25;;;;;;;11.65;5.95;;;16.60;74.60;;;;;;5118624;27;20098;-64
2022/10/05 05:05:22;;;;;;;10.55;6.07;;;16.60;74.70;;;;;;5132536;27;20023;-65
2022/10/05 05:08:18;;;;;;;9.77;5.95;;;16.50;74.70;;;;;;5132579;27;20024;-65
2022/10/05 05:11:12;;;;;;;9.80;6.07;;;16.60;74.80;;;;;;5114651;27;20031;-65
2022/10/05 05:13:59;;;;;;;10.85;6.63;;;16.60;74.70;;;;;;5112711;27;20091;-64
2022/10/05 05:16:24;;;;;;;11.48;6.20;;;16.60;74.70;;;;;;5113144;27;20027;-65
2022/10/05 05:19:01;;;;;;;14.05;6.47;;;16.60;74.60;;;;;;5115766;28;20031;-65
2022/10/05 05:21:52;;;;;;;11.13;5.95;;;16.60;74.60;;;;;;5130668;27;20023;-64
2022/10/05 05:24:44;;;;;;;11.05;6.47;;;16.60;74.60;;;;;;5115065;28;20027;-65
2022/10/05 05:27:45;;;;;;;11.23;6.47;;;16.50;74.50;;;;;;5128571;27;20039;-64
2022/10/05 05:30:23;;;;;;;10.32;5.63;;;16.60;74.60;;;;;;5098708;27;20035;-65
2022/10/05 05:33:12;;;;;;;10.07;6.25;;;16.50;74.60;;;;;;5114206;28;20042;-65
2022/10/05 05:35:43;;;;;;;12.30;6.68;;;16.50;74.60;;;;;;5114361;27;20019;-64
2022/10/05 05:38:15;;;;;;;;;;;16.50;74.50;;;;;;5113583;27;20028;-65
2022/10/05 05:41:09;;;;;;;10.60;5.70;;;16.60;74.50;;;;;;5124140;27;19911;-64
2022/10/05 05:43:58;;;;;;;10.02;5.93;;;16.50;74.50;;;;;;5097702;27;20031;-64
2022/10/05 05:46:28;;;;;;;11.25;6.18;;;16.50;74.40;;;;;;5111820;28;20051;-66
2022/10/05 05:48:56;;;;;;;9.80;6.25;;;16.50;74.50;;;;;;5114627;28;20020;-66
2022/10/05 05:51:34;;;;;;;11.25;5.85;;;16.50;74.50;;;;;;5114051;28;20146;-66
2022/10/05 05:54:15;;;;;;;11.40;6.53;;;16.50;74.50;;;;;;5099758;27;20031;-66
2022/10/05 05:56:54;;;;;;;;;;;16.50;74.40;;;;;;5123507;27;20053;-66
2022/10/05 05:59:51;;;;;;;9.13;5.55;;;16.50;74.50;;;;;;5112791;28;20002;-66
2022/10/05 06:02:22;;;;;;;10.52;6.32;;;16.50;74.40;;;;;;5111365;27;20042;-64
2022/10/05 06:04:53;;;;;;;9.55;5.97;;;16.50;74.40;;;;;;5112483;28;20023;-65
2022/10/05 06:07:23;;;;;;;9.80;5.63;;;16.50;74.50;;;;;;5124768;27;20398;-65
2022/10/05 06:09:57;;;;;;;11.43;6.85;;;16.50;74.50;;;;;;5109978;28;20019;-65
2022/10/05 06:12:33;;;;;;;10.95;5.97;;;16.50;74.50;;;;;;5095812;27;20444;-65
2022/10/05 06:15:11;;;;;;;10.27;5.82;;;16.50;74.50;;;;;;5110116;28;20027;-66
2022/10/05 06:17:42;;;;;;;8.57;5.47;;;16.50;74.50;;;;;;5112580;28;20035;-66
2022/10/05 06:20:24;;;;;;;9.98;6.68;;;16.60;74.50;;;;;;5111421;28;20378;-66
2022/10/05 06:22:53;;;;;;;10.38;6.07;;;16.50;74.30;;;;;;5091062;28;20020;-66
2022/10/05 06:25:29;;;;;;;7.97;5.22;;;16.60;74.40;;;;;;5093563;28;20050;-72
2022/10/05 06:28:11;;;;;;;9.70;5.97;;;16.50;74.40;;;;;;5128793;27;20022;-66
2022/10/05 06:31:15;;;;;;;10.70;6.20;;;16.60;74.30;;;;;;5128490;27;20024;-65
2022/10/05 06:33:53;;;;;;;8.27;5.07;;;16.60;74.30;;;;;;5109606;28;20058;-66
2022/10/05 06:36:46;;;;;;;8.32;4.88;;;16.50;74.30;;;;;;5126523;27;20035;-65
2022/10/05 06:39:54;;;;;;;8.75;4.80;;;16.50;74.20;;;;;;5119886;28;20376;-67
2022/10/05 06:42:38;;;;;;;9.93;5.30;;;16.60;74.10;;;;;;5126340;27;20031;-66
2022/10/05 06:46:02;;;;;;;8.43;5.07;;;16.60;74.10;;;;;;5099824;28;20031;-66
2022/10/05 06:49:00;;;;;;;9.48;4.80;;;16.60;74.10;;;;;;5110537;28;20447;-66
2022/10/05 06:52:25;;;;;;;10.35;5.63;;;16.60;74.10;;;;;;5087658;28;20687;-66
2022/10/05 06:55:11;;;;;;;8.98;4.78;;;16.50;74.70;;;;;;5111927;28;20365;-65
2022/10/05 06:57:52;;;;;;;10.95;5.60;;;16.50;74.10;;;;;;5115877;28;20032;-66
2022/10/05 07:00:24;;;;;;;9.77;5.57;;;16.50;74.20;;;;;;5112736;28;20040;-65
2022/10/05 07:03:14;;;;;;;10.63;5.70;;;16.50;74.20;;;;;;5127700;27;20023;-66
2022/10/05 07:06:05;;;;;;;10.70;5.75;;;16.50;74.20;;;;;;5115976;28;20301;-66
2022/10/05 07:08:46;;;;;;;10.10;5.53;;;16.50;74.30;;;;;;5114215;28;20056;-66
2022/10/05 07:11:36;;;;;;;9.80;5.50;;;16.50;74.30;;;;;;5113567;27;20107;-66
2022/10/05 07:14:16;;;;;;;12.02;5.70;;;16.50;74.30;;;;;;5114255;27;20019;-66
2022/10/05 07:17:01;;;;;;;8.83;5.20;;;16.50;74.30;;;;;;5099986;28;20168;-66
2022/10/05 07:19:44;;;;;;;8.57;5.28;;;16.60;74.30;;;;;;5134308;27;20028;-68
2022/10/05 07:22:19;;;;;;;8.20;4.78;;;16.60;74.30;;;;;;5133014;27;20360;-66
2022/10/05 07:25:22;;;;;;;11.27;5.30;;;16.60;74.20;;;;;;5116208;28;20027;-66
2022/10/05 07:28:06;;;;;;;9.45;4.88;;;16.60;74.20;;;;;;5104769;28;20028;-66
2022/10/05 07:30:45;;;;;;;8.15;4.88;;;16.60;74.10;;;;;;5096600;28;20036;-66
2022/10/05 07:33:21;;;;;;;9.23;4.80;;;16.60;74.10;;;;;;5117517;28;20032;-66
2022/10/05 07:38:58;;;;;;;8.45;4.05;;;16.70;74.10;;;;;;5116319;28;20435;-66
2022/10/05 07:42:05;;;;;;;8.55;5.30;;;16.70;74.60;;;;;;5099282;28;20042;-66
2022/10/05 07:44:41;;;;;;;8.38;4.65;;;16.70;74.00;;;;;;5073092;28;20384;-65
2022/10/05 07:47:25;;;;;;;9.10;4.93;;;16.70;74.00;;;;;;5057944;28;20029;-66
2022/10/05 07:50:01;;;;;;;9.13;5.43;;;16.70;73.90;;;;;;5058575;28;20365;-66
2022/10/05 07:52:37;;;;;;;11.10;5.65;;;16.70;73.80;;;;;;5057974;28;20048;-66
2022/10/05 07:55:24;;;;;;;8.85;5.20;;;16.70;73.90;;;;;;5042644;28;20033;-66
2022/10/05 07:58:08;;;;;;;10.43;4.60;;;16.70;73.70;;;;;;5058108;28;20032;-66
2022/10/05 08:00:46;;;;;;;9.43;4.70;;;16.70;73.80;;;;;;5058278;28;20491;-66
2022/10/05 08:03:59;;;;;;;9.57;4.85;;;16.80;73.80;;;;;;5058215;28;20040;-66
2022/10/05 08:06:36;;;;;;;9.25;4.93;;;16.80;73.70;;;;;;5011396;28;20029;-66
2022/10/05 08:09:34;;;;;;;8.23;4.50;;;16.70;73.60;;;;;;5006635;28;20136;-66
2022/10/05 08:12:21;;;;;;;8.75;4.32;;;16.80;73.60;;;;;;5014982;28;20030;-66
2022/10/05 08:15:19;;;;;;;9.60;4.70;;;16.80;73.60;;;;;;5019717;28;20072;-66
2022/10/05 08:17:59;;;;;;;7.10;4.07;;;16.80;73.60;;;;;;5054354;28;20473;-65
2022/10/05 08:20:35;;;;;;;7.85;4.18;;;16.80;73.60;;;;;;5055317;28;20043;-66
2022/10/05 08:23:25;;;;;;;8.40;4.38;;;16.80;73.50;;;;;;5044825;28;20069;-66
2022/10/05 08:25:58;;;;;;;9.57;4.38;;;16.90;73.40;;;;;;5042849;28;20021;-66
2022/10/05 08:28:33;;;;;;;8.23;3.45;;;16.90;73.20;;;;;;5037524;28;20059;-65
2022/10/05 08:31:23;;;;;;;6.85;3.47;;;16.90;73.20;;;;;;5039367;28;20049;-66
2022/10/05 08:34:19;;;;;;;6.95;3.33;;;17.00;73.10;;;;;;5054941;28;20032;-66
2022/10/05 08:37:31;;;;;;;6.40;3.38;;;17.00;72.90;;;;;;5070643;28;20059;-66
2022/10/05 08:40:31;;;;;;;6.53;3.15;;;17.10;72.80;;;;;;5133076;27;20032;-66
2022/10/05 08:42:56;;;;;;;7.28;3.20;;;17.10;72.60;;;;;;5115632;28;20062;-66
2022/10/05 08:46:07;;;;;;;6.95;3.10;;;17.10;72.60;;;;;;5115328;28;20055;-66
2022/10/05 08:49:04;;;;;;;8.73;3.60;;;17.20;72.60;;;;;;5113811;27;20126;-66
2022/10/05 08:51:54;;;;;;;6.32;2.92;;;17.20;72.40;;;;;;5112902;28;20050;-66
2022/10/05 08:54:30;;;;;;;6.72;3.58;;;17.30;72.30;;;;;;5115152;27;20110;-66
2022/10/05 08:57:34;;;;;;;7.15;3.47;;;17.40;72.10;;;;;;5114947;28;20437;-66
2022/10/05 09:00:11;;;;;;;6.63;2.83;;;17.40;71.90;;;;;;5115126;28;20035;-66
2022/10/05 09:02:49;;;;;;;7.28;3.17;;;17.50;71.90;;;;;;5115694;28;20112;-66
2022/10/05 09:05:53;;;;;;;7.88;3.58;;;17.50;71.90;;;;;;5115234;28;20111;-65
2022/10/05 09:08:40;;;;;;;7.65;3.50;;;17.60;71.70;;;;;;5111512;28;20466;-65
2022/10/05 09:11:30;;;;;;;6.22;3.30;;;17.60;71.60;;;;;;5114733;27;20070;-66
2022/10/05 09:14:05;;;;;;;6.57;3.30;;;17.60;71.50;;;;;;5109399;27;20031;-66
2022/10/05 09:16:45;;;;;;;7.07;3.65;;;17.70;71.60;;;;;;5130495;27;20035;-65
2022/10/05 09:19:26;;;;;;;8.70;3.30;;;17.70;71.50;;;;;;5115802;28;20042;-65
2022/10/05 09:22:29;;;;;;;7.53;3.80;;;17.80;71.30;;;;;;5116769;28;20032;-65
2022/10/05 09:24:57;;;;;;;8.93;3.47;;;17.90;71.20;;;;;;5105868;28;20110;-65
2022/10/05 09:27:36;;;;;;;8.57;3.58;;;18.00;71.00;;;;;;5131301;27;20027;-65
2022/10/05 09:30:28;;;;;;;7.57;3.80;;;18.10;70.80;;;;;;5106442;28;20035;-65
2022/10/05 09:33:43;;;;;;;8.27;3.33;;;18.10;70.60;;;;;;5124936;27;20404;-65
2022/10/05 09:36:37;;;;;;;7.40;3.60;;;18.20;70.50;;;;;;5113647;28;20044;-66
2022/10/05 09:39:24;;;;;;;6.30;3.25;;;18.20;70.50;;;;;;5115644;28;20031;-65
2022/10/05 09:42:18;;;;;;;6.72;3.22;;;18.20;70.40;;;;;;5113350;28;20027;-65
2022/10/05 09:45:11;;;;;;;7.20;3.10;;;18.30;70.40;;;;;;5113315;27;20468;-65
2022/10/05 09:48:07;;;;;;;7.95;3.38;;;18.30;70.40;;;;;;5115478;27;20364;-65
2022/10/05 09:50:43;;;;;;;7.00;3.15;;;18.30;70.30;;;;;;5123876;27;20084;-65
2022/10/05 09:53:31;;;;;;;8.00;3.08;;;18.30;70.30;;;;;;5114375;28;20046;-65
2022/10/05 09:56:19;;;;;;;5.60;3.10;;;18.40;70.40;;;;;;5116616;27;20088;-65
2022/10/05 09:58:47;;;;;;;6.55;2.78;;;18.40;70.10;;;;;;5114478;28;20020;-66
2022/10/05 10:01:30;;;;;;;7.45;3.38;;;18.40;70.20;;;;;;5115418;27;20065;-65
2022/10/05 10:04:25;;;;;;;7.03;3.45;;;18.50;70.00;;;;;;5121653;27;20170;-66
2022/10/05 10:07:09;;;;;;;6.88;3.15;;;18.50;69.90;;;;;;5108947;27;20035;-66
2022/10/05 10:09:46;;;;;;;6.18;3.15;;;18.50;69.80;;;;;;5110127;27;20038;-66
2022/10/05 10:12:21;;;;;;;7.88;3.20;;;18.70;69.80;;;;;;5113371;28;20092;-65
2022/10/05 10:15:14;;;;;;;7.93;3.45;;;18.70;69.50;;;;;;5123440;27;20035;-66
2022/10/05 10:17:54;;;;;;;5.28;2.33;;;18.80;69.30;;;;;;5113895;28;21548;-66
2022/10/05 10:21:02;;;;;;;8.98;3.20;;;18.80;69.20;;;;;;5113468;28;20050;-64
2022/10/05 10:23:48;;;;;;;7.45;3.60;;;18.90;69.30;;;;;;5051871;28;20107;-63
2022/10/05 10:26:29;;;;;;;5.18;2.47;;;19.00;69.10;;;;;;5052872;28;20180;-64
2022/10/05 10:29:18;;;;;;;6.43;2.80;;;19.20;68.70;;;;;;5042845;28;20041;-64
2022/10/05 10:32:18;;;;;;;6.78;2.88;;;19.30;68.40;;;;;;5053146;28;20187;-64
2022/10/05 10:35:21;;;;;;;6.40;2.80;;;19.40;68.10;;;;;;5052464;28;20461;-64
2022/10/05 10:38:22;;;;;;;6.40;2.72;;;19.50;67.90;;;;;;5051049;28;20032;-65
2022/10/05 10:41:17;;;;;;;8.05;2.83;;;19.50;67.80;;;;;;5052449;28;20052;-65
2022/10/05 10:44:30;;;;;;;7.43;3.13;;;19.60;67.70;;;;;;5052022;28;20061;-65
2022/10/05 10:47:14;;;;;;;7.65;2.90;;;19.60;67.70;;;;;;5052083;28;20106;-64
2022/10/05 10:49:51;;;;;;;6.43;3.20;;;19.50;67.80;;;;;;5051771;28;20029;-64
2022/10/05 10:52:31;;;;;;;6.50;2.88;;;19.40;67.70;;;;;;5051993;28;20461;-64
2022/10/05 10:55:36;;;;;;;6.82;2.80;;;19.40;67.70;;;;;;5100919;28;20065;-64
2022/10/05 10:58:19;;;;;;;5.93;3.08;;;19.30;67.70;;;;;;5113824;28;20126;-64
2022/10/05 11:00:50;;;;;;;6.80;2.80;;;19.30;67.80;;;;;;5113462;28;20414;-64
2022/10/05 11:03:34;;;;;;;5.32;2.67;;;19.30;67.80;;;;;;5114603;28;20066;-64
2022/10/05 11:06:30;;;;;;;5.95;2.78;;;19.30;67.80;;;;;;5114021;28;20020;-64
2022/10/05 11:09:41;;;;;;;5.68;2.70;;;19.30;67.90;;;;;;5114331;28;20398;-64
2022/10/05 11:12:07;;;;;;;5.68;2.58;;;19.30;68.00;;;;;;5114547;28;20153;-64
2022/10/05 11:15:21;;;;;;;7.40;3.08;;;19.20;68.00;;;;;;5119509;28;20110;-64
2022/10/05 11:18:11;;;;;;;5.68;2.50;;;19.30;68.00;;;;;;5058700;28;20083;-64
2022/10/05 11:20:48;;;;;;;5.60;2.60;;;19.20;68.00;;;;;;5050811;28;20025;-64
2022/10/05 11:23:45;;;;;;;5.95;2.47;;;19.30;68.00;;;;;;5047945;28;20043;-64
2022/10/05 11:26:14;;;;;;;7.95;2.80;;;19.30;67.80;;;;;;5030578;28;20127;-64
2022/10/05 11:29:29;;;;;;;4.60;2.35;;;19.30;67.70;;;;;;5049532;28;20083;-64
2022/10/05 11:32:15;;;;;;;6.18;2.40;;;19.40;67.60;;;;;;5045920;28;20044;-64
2022/10/05 11:35:05;;;;;;;5.15;2.38;;;19.30;67.50;;;;;;5046754;28;20048;-64
2022/10/05 11:37:52;;;;;;;6.50;2.42;;;19.40;67.50;;;;;;5049759;28;20124;-64
2022/10/05 11:40:42;;;;;;;6.13;2.35;;;19.40;67.50;;;;;;5046418;28;20041;-64
2022/10/05 11:43:27;;;;;;;6.03;2.53;;;19.40;67.50;;;;;;5049739;28;20029;-65
2022/10/05 11:46:23;;;;;;;5.78;2.50;;;19.40;67.50;;;;;;5050193;28;20033;-64
2022/10/05 11:48:54;;;;;;;6.35;2.47;;;19.40;67.50;;;;;;5049439;28;20365;-65
2022/10/05 11:51:27;;;;;;;;;;;19.40;67.50;;;;;;5050935;28;20037;-65
2022/10/05 11:54:01;;;;;;;5.70;2.67;;;19.40;67.60;;;;;;5073028;28;19915;-65
2022/10/05 11:56:38;;;;;;;5.25;2.53;;;19.40;67.50;;;;;;5104296;27;20509;-66
2022/10/05 11:59:19;;;;;;;6.43;2.60;;;19.40;67.30;;;;;;5115968;28;20027;-65
2022/10/05 12:01:47;;;;;;;;;;;19.50;67.30;;;;;;5114605;27;20059;-65
2022/10/05 12:04:40;;;;;;;4.57;2.03;;;19.50;67.40;;;;;;5115873;28;20247;-66
2022/10/05 12:07:18;;;;;;;5.28;2.10;;;19.50;67.30;;;;;;5116114;27;20417;-65
2022/10/05 12:10:13;;;;;;;5.18;2.28;;;19.50;67.20;;;;;;5117201;27;20032;-66
2022/10/05 12:12:48;;;;;;;5.65;2.45;;;19.50;67.10;;;;;;5094718;27;20124;-66
2022/10/05 12:15:34;;;;;;;4.50;2.13;;;19.60;67.10;;;;;;5117425;28;20107;-65
2022/10/05 12:18:18;;;;;;;4.95;2.40;;;19.60;67.20;;;;;;5106732;28;20047;-65
2022/10/05 12:20:54;;;;;;;4.25;2.20;;;19.70;67.10;;;;;;5118043;27;20360;-65
2022/10/05 12:23:41;;;;;;;6.95;2.40;;;19.70;67.10;;;;;;5109372;27;20036;-66
2022/10/05 12:26:25;;;;;;;5.18;2.42;;;19.70;67.10;;;;;;5130443;27;20129;-69
2022/10/05 12:28:58;;;;;;;4.95;2.30;;;19.80;67.20;;;;;;5116622;27;20055;-66
2022/10/05 12:31:42;;;;;;;6.35;2.45;;;19.80;67.20;;;;;;5114794;27;20059;-66
2022/10/05 12:34:42;;;;;;;5.07;2.20;;;19.90;67.20;;;;;;5117341;28;20043;-66
2022/10/05 12:37:23;;;;;;;6.13;2.10;;;20.00;67.10;;;;;;5116682;28;20046;-67
2022/10/05 12:39:57;;;;;;;7.07;2.47;;;20.00;66.90;;;;;;5119677;27;20416;-65
2022/10/05 12:42:50;;;;;;;5.95;2.50;;;20.00;66.90;;;;;;5125402;27;20474;-66
2022/10/05 12:45:44;;;;;;;6.30;2.35;;;20.00;67.00;;;;;;5116591;28;20027;-66
2022/10/05 12:48:38;;;;;;;6.35;2.50;;;20.00;67.10;;;;;;5102936;28;20028;-66
2022/10/05 12:51:20;;;;;;;5.78;2.50;;;20.00;67.00;;;;;;5117381;28;20367;-66
2022/10/05 12:53:55;;;;;;;7.32;2.63;;;20.10;67.00;;;;;;5121454;27;20035;-66
2022/10/05 12:56:49;;;;;;;5.40;2.40;;;20.10;67.00;;;;;;5116989;28;20051;-66
2022/10/05 12:59:36;;;;;;;6.35;2.13;;;20.10;67.10;;;;;;5133166;27;20031;-66
2022/10/05 13:02:10;;;;;;;6.20;2.45;;;20.10;67.10;;;;;;5131354;27;20084;-66
2022/10/05 13:05:08;;;;;;;5.68;2.65;;;20.10;67.10;;;;;;5122200;27;20149;-66
2022/10/05 13:07:53;;;;;;;6.32;2.28;;;20.10;67.20;;;;;;5074431;28;20060;-66
2022/10/05 13:10:35;;;;;;;4.95;1.88;;;20.10;67.20;;;;;;5074359;28;20319;-63
2022/10/05 13:13:33;;;;;;;5.28;2.25;;;20.10;67.20;;;;;;5057635;28;20420;-64
2022/10/05 13:16:13;;;;;;;4.63;2.10;;;20.10;67.20;;;;;;5074353;28;20352;-65
2022/10/05 13:19:03;;;;;;;4.35;2.15;;;20.10;67.40;;;;;;5055544;28;20057;-65
2022/10/05 13:21:48;;;;;;;4.90;2.15;;;20.10;67.30;;;;;;5064706;28;20036;-65
2022/10/05 13:24:22;;;;;;;6.10;2.22;;;20.10;67.30;;;;;;5074171;28;20040;-65
2022/10/05 13:27:10;;;;;;;5.22;2.08;;;20.10;67.30;;;;;;5074876;28;20039;-65
2022/10/05 13:29:58;;;;;;;6.68;2.40;;;20.10;67.20;;;;;;5067671;28;20119;-64
2022/10/05 13:32:29;;;;;;;5.90;2.38;;;20.10;67.20;;;;;;5074209;28;20045;-64
2022/10/05 13:35:14;;;;;;;5.47;2.10;;;20.10;67.30;;;;;;5073711;28;20043;-65
2022/10/05 13:38:04;;;;;;;7.13;2.30;;;20.10;67.30;;;;;;5073991;28;20043;-65
2022/10/05 13:40:39;;;;;;;4.65;2.03;;;20.10;67.40;;;;;;5073734;28;20416;-65
2022/10/05 13:43:42;;;;;;;6.53;2.25;;;20.10;67.40;;;;;;5092667;28;20452;-65
2022/10/05 13:46:39;;;;;;;4.28;2.13;;;20.10;68.20;;;;;;5111132;28;20031;-65
2022/10/05 13:49:31;;;;;;;5.35;2.20;;;20.10;67.60;;;;;;5115851;28;20020;-65
2022/10/05 13:52:18;;;;;;;4.53;1.92;;;20.20;67.60;;;;;;5115770;28;20486;-65
2022/10/05 13:54:56;;;;;;;4.97;2.22;;;20.20;67.60;;;;;;5116185;28;20055;-65
2022/10/05 13:57:44;;;;;;;5.00;2.22;;;20.20;67.50;;;;;;5114894;28;20039;-65
2022/10/05 14:00:21;;;;;;;5.38;2.33;;;20.20;67.60;;;;;;5102559;28;20019;-65
2022/10/05 14:02:50;;;;;;;4.97;2.03;;;20.20;67.60;;;;;;5115429;28;20088;-65
2022/10/05 14:05:21;;;;;;;4.50;1.90;;;20.20;67.60;;;;;;5115408;28;20444;-65
2022/10/05 14:07:51;;;;;;;6.78;2.10;;;20.30;67.70;;;;;;5114877;28;20313;-65
2022/10/05 14:10:41;;;;;;;4.28;2.03;;;20.20;67.70;;;;;;5130927;27;20386;-65
2022/10/05 14:13:45;;;;;;;3.73;1.90;;;20.20;67.50;;;;;;5113454;28;20351;-65